Terminal Aerodrome Forecast
Issued by NWS

Home | Current Version | Previous Version | Text Only | Print | Product List | Glossary Off
Versions: 1 2 3 4 5 6 7 8 9 10 11 12 13 14 15 16 17 18 19 20 21 22

000
FTUS43 KBIS 290521
TAFMOT
TAF
KMOT 290521Z 2906/3006 24007KT P6SM FEW120
     FM291500 33012KT P6SM SCT080
     FM292100 01008KT P6SM SCT060
     FM300200 06005KT P6SM FEW060 SCT200=

USA.gov is the U.S. government's official web portal to all federal, state and local government web resources and services.